createdAt,value
2019-06-26T00:00:12.703Z,10.07
2019-06-26T00:02:42.493Z,11.43
2019-06-26T00:05:12.349Z,11.40
2019-06-26T00:07:42.341Z,12.73
2019-06-26T00:10:12.703Z,13.33
2019-06-26T00:12:42.515Z,11.97
2019-06-26T00:15:12.669Z,10.00
2019-06-26T00:17:42.565Z,12.90
2019-06-26T00:20:14.323Z,13.23
2019-06-26T00:22:44.074Z,12.70
2019-06-26T00:25:13.905Z,9.07
2019-06-26T00:27:43.629Z,10.97
2019-06-26T00:30:14.015Z,13.60
2019-06-26T00:32:43.815Z,9.47
2019-06-26T00:35:13.692Z,11.13
2019-06-26T00:37:43.424Z,10.13
2019-06-26T00:40:13.405Z,10.30
2019-06-26T00:42:43.133Z,10.27
2019-06-26T00:45:13.300Z,10.27
2019-06-26T00:47:43.011Z,13.13
2019-06-26T00:50:13.607Z,11.80
2019-06-26T00:52:43.422Z,10.87
2019-06-26T00:55:13.296Z,9.70
2019-06-26T00:57:43.087Z,11.37
2019-06-26T01:00:13.822Z,12.03
2019-06-26T01:02:43.575Z,12.30
2019-06-26T01:05:14.004Z,9.40
2019-06-26T01:07:43.766Z,12.33
2019-06-26T01:10:14.033Z,16.67
2019-06-26T01:12:43.759Z,9.40
2019-06-26T01:15:13.925Z,10.40
2019-06-26T01:17:44.046Z,14.13
2019-06-26T01:20:14.362Z,13.87
2019-06-26T01:22:44.087Z,12.83
2019-06-26T01:25:14.729Z,10.43
2019-06-26T01:27:44.622Z,11.13
2019-06-26T01:30:15.478Z,16.13
2019-06-26T01:32:45.227Z,11.53
2019-06-26T01:35:15.173Z,14.47
2019-06-26T01:37:45.027Z,11.33
2019-06-26T01:40:15.285Z,16.50
2019-06-26T01:42:45.087Z,12.70
2019-06-26T01:45:14.889Z,11.37
2019-06-26T01:47:44.797Z,12.77
2019-06-26T01:50:15.573Z,12.30
2019-06-26T01:52:45.345Z,10.63
2019-06-26T01:55:15.390Z,12.63
2019-06-26T01:57:45.321Z,13.17
2019-06-26T02:00:15.522Z,13.30
2019-06-26T02:02:45.330Z,19.13
2019-06-26T02:05:15.152Z,13.53
2019-06-26T02:07:44.965Z,16.73
2019-06-26T02:10:14.971Z,10.70
2019-06-26T02:12:44.708Z,14.83
2019-06-26T02:15:14.596Z,11.63
2019-06-26T02:17:44.421Z,12.07
2019-06-26T02:20:14.495Z,13.33
2019-06-26T02:22:44.211Z,15.13
2019-06-26T02:25:14.483Z,15.53
2019-06-26T02:27:44.375Z,13.60
2019-06-26T02:30:14.947Z,12.27
2019-06-26T02:32:44.750Z,12.60
2019-06-26T02:35:14.720Z,12.23
2019-06-26T02:37:44.465Z,11.17
2019-06-26T02:40:14.732Z,13.67
2019-06-26T02:42:44.491Z,12.97
2019-06-26T02:45:14.861Z,12.53
2019-06-26T02:47:44.616Z,11.40
2019-06-26T02:50:14.450Z,11.60
2019-06-26T02:52:44.245Z,13.27
2019-06-26T02:55:14.134Z,16.37
2019-06-26T02:57:43.895Z,13.47
2019-06-26T03:00:13.695Z,15.53
2019-06-26T03:02:43.604Z,12.27
2019-06-26T03:05:15.093Z,15.37
2019-06-26T03:07:44.816Z,23.33
2019-06-26T03:10:14.724Z,12.77
2019-06-26T03:12:44.635Z,12.77
2019-06-26T03:15:15.014Z,13.87
2019-06-26T03:17:54.686Z,13.97
2019-06-26T03:20:19.362Z,12.93
2019-06-26T03:22:49.243Z,13.10
2019-06-26T03:25:19.122Z,11.03
2019-06-26T03:27:48.830Z,12.23
2019-06-26T03:30:18.738Z,12.33
2019-06-26T03:32:48.536Z,12.23
2019-06-26T03:35:18.341Z,10.90
2019-06-26T03:37:48.092Z,15.13
2019-06-26T03:40:18.069Z,13.73
2019-06-26T03:42:47.880Z,11.47
2019-06-26T03:45:25.941Z,11.50
2019-06-26T03:47:49.214Z,13.80
2019-06-26T03:50:19.176Z,13.73
2019-06-26T03:52:49.040Z,12.20
2019-06-26T03:55:19.052Z,11.37
2019-06-26T03:57:48.900Z,10.87
2019-06-26T04:00:24.623Z,11.33
2019-06-26T04:02:54.359Z,12.47
2019-06-26T04:05:24.082Z,15.13
2019-06-26T04:07:53.825Z,16.53
2019-06-26T04:10:23.602Z,13.30
2019-06-26T04:12:53.753Z,12.80
2019-06-26T04:15:23.442Z,12.50
2019-06-26T04:17:53.191Z,11.77
2019-06-26T04:20:22.963Z,9.33
2019-06-26T04:22:52.731Z,12.43
2019-06-26T04:25:22.523Z,9.30
2019-06-26T04:27:52.295Z,11.43
2019-06-26T04:30:22.548Z,11.23
2019-06-26T04:32:52.314Z,11.33
2019-06-26T04:35:22.013Z,12.80
2019-06-26T04:37:51.877Z,12.68
2019-06-26T04:40:21.889Z,13.27
2019-06-26T04:42:51.605Z,10.08
2019-06-26T04:45:21.468Z,9.13
2019-06-26T04:47:51.216Z,13.98
2019-06-26T04:50:21.183Z,17.60
2019-06-26T04:52:50.999Z,8.67
2019-06-26T04:55:20.750Z,10.88
2019-06-26T04:57:50.484Z,11.00
2019-06-26T05:00:21.992Z,13.25
2019-06-26T05:02:51.892Z,8.60
2019-06-26T05:05:21.753Z,9.78
2019-06-26T05:07:53.729Z,11.00
2019-06-26T05:10:24.240Z,10.60
2019-06-26T05:12:53.992Z,10.30
2019-06-26T05:15:23.935Z,14.35
2019-06-26T05:17:53.732Z,13.57
2019-06-26T05:20:23.579Z,14.25
2019-06-26T05:22:53.466Z,9.87
2019-06-26T05:25:23.197Z,11.67
2019-06-26T05:27:52.927Z,13.17
2019-06-26T05:30:22.899Z,14.20
2019-06-26T05:32:53.084Z,12.70
2019-06-26T05:35:22.850Z,10.47
2019-06-26T05:37:52.596Z,17.53
2019-06-26T05:40:22.891Z,11.97
2019-06-26T05:42:52.692Z,10.67
2019-06-26T05:45:22.751Z,12.43
2019-06-26T05:47:52.543Z,13.10
2019-06-26T05:50:22.527Z,18.62
2019-06-26T05:52:52.367Z,16.30
2019-06-26T05:55:22.145Z,14.10
2019-06-26T05:57:52.093Z,12.85
2019-06-26T06:00:22.205Z,10.10
2019-06-26T06:02:54.031Z,9.98
2019-06-26T06:05:23.673Z,12.33
2019-06-26T06:07:53.556Z,13.23
2019-06-26T06:10:23.381Z,14.70
2019-06-26T06:12:53.138Z,12.82
2019-06-26T06:15:22.918Z,13.05
2019-06-26T06:17:52.651Z,12.78
2019-06-26T06:20:28.430Z,13.67
2019-06-26T06:22:58.238Z,14.68
2019-06-26T06:25:27.992Z,14.63
2019-06-26T06:27:57.853Z,16.07
2019-06-26T06:30:27.743Z,14.93
2019-06-26T06:32:57.597Z,16.50
2019-06-26T06:35:27.426Z,16.90
2019-06-26T06:37:57.147Z,16.30
2019-06-26T06:40:27.023Z,13.50
2019-06-26T06:42:56.938Z,18.20
2019-06-26T06:45:27.091Z,14.70
2019-06-26T06:47:56.819Z,20.72
2019-06-26T06:50:26.681Z,16.10
2019-06-26T06:52:56.458Z,14.45
2019-06-26T06:55:26.287Z,12.35
2019-06-26T06:57:56.252Z,13.93
2019-06-26T07:00:26.435Z,16.37
2019-06-26T07:02:56.309Z,16.30
2019-06-26T07:05:26.128Z,17.10
2019-06-26T07:07:55.944Z,15.48
2019-06-26T07:10:25.685Z,15.98
2019-06-26T07:12:55.411Z,15.60
2019-06-26T07:15:25.321Z,12.28
2019-06-26T07:17:55.124Z,14.63
2019-06-26T07:20:25.135Z,13.78
2019-06-26T07:22:54.868Z,16.35
2019-06-26T07:25:24.667Z,14.33
2019-06-26T07:27:54.378Z,13.13
2019-06-26T07:30:24.263Z,13.93
2019-06-26T07:32:53.978Z,15.38
2019-06-26T07:35:23.720Z,15.23
2019-06-26T07:37:53.481Z,13.10
2019-06-26T07:40:24.176Z,14.15
2019-06-26T07:42:55.071Z,10.82
2019-06-26T07:45:24.874Z,11.15
2019-06-26T07:47:54.754Z,15.10
2019-06-26T07:50:24.773Z,11.22
2019-06-26T07:52:54.590Z,8.98
2019-06-26T07:55:24.372Z,12.98
2019-06-26T07:57:54.106Z,9.28
2019-06-26T08:00:24.866Z,11.35
2019-06-26T08:02:54.689Z,11.73
2019-06-26T08:05:24.631Z,9.70
2019-06-26T08:07:54.376Z,11.97
2019-06-26T08:10:24.222Z,13.68
2019-06-26T08:12:54.150Z,11.40
2019-06-26T08:15:23.939Z,12.47
2019-06-26T08:18:00.395Z,10.65
2019-06-26T08:20:25.135Z,13.53
2019-06-26T08:22:54.953Z,11.40
2019-06-26T08:25:24.769Z,13.32
2019-06-26T08:27:54.515Z,11.68
2019-06-26T08:30:24.473Z,13.88
2019-06-26T08:32:54.187Z,11.40
2019-06-26T08:35:23.996Z,12.33
2019-06-26T08:38:08.941Z,10.40
2019-06-26T08:40:25.283Z,12.28
2019-06-26T08:42:55.165Z,12.80
2019-06-26T08:45:25.122Z,13.10
2019-06-26T08:47:54.782Z,11.10
2019-06-26T08:50:24.595Z,15.15
2019-06-26T08:52:54.336Z,13.22
2019-06-26T08:55:24.143Z,76.33
2019-06-26T08:57:53.883Z,89.87
2019-06-26T09:00:23.770Z,46.05
2019-06-26T09:02:53.515Z,46.90
2019-06-26T09:05:23.245Z,40.25
2019-06-26T09:07:53.401Z,20.32
2019-06-26T09:10:23.361Z,17.80
2019-06-26T09:12:53.195Z,11.10
2019-06-26T09:15:23.051Z,18.67
2019-06-26T09:17:52.952Z,13.43
2019-06-26T09:20:34.741Z,69.95
2019-06-26T09:23:04.600Z,73.42
2019-06-26T09:25:34.398Z,13.18
2019-06-26T09:28:04.876Z,18.77
2019-06-26T09:30:34.775Z,24.67
2019-06-26T09:33:04.729Z,18.82
2019-06-26T09:35:34.519Z,12.68
2019-06-26T09:38:04.296Z,17.92
2019-06-26T09:40:34.040Z,13.28
2019-06-26T09:43:03.806Z,14.90
2019-06-26T09:45:33.556Z,14.83
2019-06-26T09:48:03.589Z,19.95
2019-06-26T09:50:33.357Z,10.88
2019-06-26T09:53:05.384Z,13.15
2019-06-26T09:55:34.642Z,13.05
2019-06-26T09:58:04.442Z,12.03
2019-06-26T10:00:35.041Z,9.80
2019-06-26T10:03:05.403Z,7.12
2019-06-26T10:05:35.223Z,18.32
2019-06-26T10:08:05.072Z,15.53
2019-06-26T10:10:34.792Z,13.80
2019-06-26T10:13:04.676Z,10.70
2019-06-26T10:15:34.456Z,9.33
2019-06-26T10:18:04.286Z,10.45
2019-06-26T10:20:34.058Z,6.75
2019-06-26T10:23:03.883Z,8.63
2019-06-26T10:25:33.821Z,7.22
2019-06-26T10:28:03.646Z,9.35
2019-06-26T10:30:33.422Z,9.65
2019-06-26T10:33:03.226Z,12.30
2019-06-26T10:35:33.062Z,7.72
2019-06-26T10:38:02.894Z,11.20
2019-06-26T10:40:32.733Z,8.88
2019-06-26T10:43:02.469Z,6.50
2019-06-26T10:45:35.944Z,15.20
2019-06-26T10:48:03.693Z,7.90
2019-06-26T10:50:33.540Z,11.85
2019-06-26T10:53:03.415Z,7.92
2019-06-26T10:55:33.140Z,8.78
2019-06-26T10:58:02.849Z,6.30
2019-06-26T11:00:32.918Z,4.87
2019-06-26T11:03:02.729Z,9.73
2019-06-26T11:05:32.430Z,6.40
2019-06-26T11:08:02.232Z,5.62
2019-06-26T11:10:31.932Z,5.55
2019-06-26T11:13:01.776Z,6.28
2019-06-26T11:15:32.000Z,7.03
2019-06-26T11:18:01.784Z,6.58
2019-06-26T11:20:31.580Z,7.22
2019-06-26T11:23:01.447Z,10.25
2019-06-26T11:25:31.280Z,7.83
2019-06-26T11:28:00.991Z,8.08
2019-06-26T11:30:31.001Z,7.67
2019-06-26T11:33:00.691Z,8.10
2019-06-26T11:35:30.502Z,7.12
2019-06-26T11:38:00.309Z,7.28
2019-06-26T11:40:30.081Z,9.28
2019-06-26T11:42:59.817Z,5.97
2019-06-26T11:45:29.571Z,5.97
2019-06-26T11:47:59.305Z,4.72
2019-06-26T11:50:29.175Z,6.03
2019-06-26T11:52:58.896Z,5.97
2019-06-26T11:55:28.609Z,6.97
2019-06-26T11:57:58.427Z,4.78
2019-06-26T12:00:28.787Z,6.43
2019-06-26T12:02:58.514Z,8.88
2019-06-26T12:05:28.337Z,12.60
2019-06-26T12:07:58.153Z,7.50
2019-06-26T12:10:27.858Z,7.30
2019-06-26T12:12:57.715Z,8.03
2019-06-26T12:15:28.196Z,7.60
2019-06-26T12:17:58.051Z,9.48
2019-06-26T12:20:27.864Z,6.67
2019-06-26T12:22:57.629Z,8.25
2019-06-26T12:25:27.371Z,6.75
2019-06-26T12:27:57.358Z,5.80
2019-06-26T12:30:27.289Z,8.23
2019-06-26T12:33:03.315Z,7.90
2019-06-26T12:35:28.553Z,7.75
2019-06-26T12:37:58.493Z,9.03
2019-06-26T12:40:31.135Z,10.53
2019-06-26T12:42:59.747Z,6.55
2019-06-26T12:45:29.566Z,12.55
2019-06-26T12:47:59.362Z,5.20
2019-06-26T12:50:35.313Z,5.08
2019-06-26T12:53:00.996Z,11.43
2019-06-26T12:55:32.980Z,8.75
2019-06-26T12:58:12.622Z,5.70
2019-06-26T13:00:33.647Z,8.75
2019-06-26T13:03:03.515Z,6.55
2019-06-26T13:05:33.349Z,7.17
2019-06-26T13:08:03.126Z,5.22
2019-06-26T13:10:48.416Z,5.42
2019-06-26T13:13:04.430Z,5.17
2019-06-26T13:15:34.336Z,4.58
2019-06-26T13:18:04.057Z,5.60
2019-06-26T13:20:33.849Z,7.03
2019-06-26T13:23:04.919Z,4.40
2019-06-26T13:25:34.631Z,10.28
2019-06-26T13:28:04.494Z,7.70
2019-06-26T13:30:37.279Z,4.22
2019-06-26T13:33:07.363Z,7.62
2019-06-26T13:35:37.306Z,9.85
2019-06-26T13:38:07.189Z,10.15
2019-06-26T13:40:40.664Z,4.65
2019-06-26T13:43:08.451Z,8.55
2019-06-26T13:45:38.393Z,8.03
2019-06-26T13:48:08.352Z,7.27
2019-06-26T13:50:38.064Z,6.83
2019-06-26T13:53:07.852Z,6.00
2019-06-26T13:55:37.727Z,5.70
2019-06-26T13:58:07.571Z,7.55
2019-06-26T14:00:37.274Z,7.78
2019-06-26T14:06:35.071Z,10.27
2019-06-26T14:09:07.033Z,8.13
2019-06-26T14:11:36.754Z,7.95
2019-06-26T14:14:10.062Z,8.60
2019-06-26T14:16:39.886Z,5.93
2019-06-26T14:19:09.658Z,4.50
2019-06-26T14:21:39.456Z,5.67
2019-06-26T14:24:09.341Z,6.50
2019-06-26T14:26:39.150Z,3.47
2019-06-26T14:29:20.393Z,7.40
2019-06-26T14:31:40.447Z,7.53
2019-06-26T14:34:14.710Z,8.10
2019-06-26T14:36:44.636Z,7.47
2019-06-26T14:39:14.442Z,6.40
2019-06-26T14:41:44.210Z,10.78
2019-06-26T14:44:14.109Z,7.72
2019-06-26T14:46:43.959Z,5.87
2019-06-26T14:49:13.867Z,10.93
2019-06-26T14:51:47.425Z,6.13
2019-06-26T14:54:15.037Z,8.03
2019-06-26T14:56:44.750Z,9.23
2019-06-26T14:59:14.496Z,12.90
2019-06-26T15:01:44.223Z,10.97
2019-06-26T15:04:13.953Z,8.17
2019-06-26T15:06:43.796Z,10.90
2019-06-26T15:09:13.586Z,8.47
2019-06-26T15:11:43.304Z,13.93
2019-06-26T15:14:13.118Z,10.83
2019-06-26T15:16:43.002Z,12.23
2019-06-26T15:19:12.722Z,7.27
2019-06-26T15:21:57.404Z,13.23
2019-06-26T15:24:14.149Z,11.30
2019-06-26T15:26:44.061Z,12.03
2019-06-26T15:29:13.823Z,6.43
2019-06-26T15:31:43.569Z,5.53
2019-06-26T15:34:13.483Z,9.57
2019-06-26T15:36:43.414Z,12.13
2019-06-26T15:39:13.246Z,6.27
2019-06-26T15:41:42.996Z,9.13
2019-06-26T15:44:12.747Z,6.97
2019-06-26T15:46:42.572Z,9.00
2019-06-26T15:49:12.421Z,5.30
2019-06-26T15:51:42.268Z,7.77
2019-06-26T15:54:12.020Z,9.03
2019-06-26T15:56:41.832Z,8.40
2019-06-26T15:59:11.610Z,6.93
2019-06-26T16:01:41.458Z,10.47
2019-06-26T16:04:11.211Z,14.10
2019-06-26T16:06:41.153Z,8.83
2019-06-26T16:09:10.908Z,7.43
2019-06-26T16:11:40.676Z,11.17
2019-06-26T16:14:10.429Z,9.93
2019-06-26T16:16:41.966Z,13.87
2019-06-26T16:19:22.390Z,13.77
2019-06-26T16:21:52.193Z,11.30
2019-06-26T16:24:21.905Z,7.00
2019-06-26T16:26:51.806Z,15.87
2019-06-26T16:29:21.518Z,13.20
2019-06-26T16:31:51.424Z,10.93
2019-06-26T16:34:21.120Z,9.27
2019-06-26T16:36:50.907Z,12.27
2019-06-26T16:39:22.272Z,11.33
2019-06-26T16:41:52.089Z,10.77
2019-06-26T16:44:22.171Z,9.23
2019-06-26T16:46:52.022Z,11.27
2019-06-26T16:49:21.779Z,5.13
2019-06-26T16:51:51.568Z,6.77
2019-06-26T16:54:21.346Z,13.07
2019-06-26T16:56:51.115Z,6.90
2019-06-26T16:59:20.839Z,8.03
2019-06-26T17:01:50.610Z,9.47
2019-06-26T17:04:20.441Z,3.50
2019-06-26T17:06:50.435Z,6.70
2019-06-26T17:09:20.221Z,7.80
2019-06-26T17:11:50.093Z,5.97
2019-06-26T17:14:19.902Z,6.93
2019-06-26T17:16:49.675Z,5.27
2019-06-26T17:19:19.458Z,4.83
2019-06-26T17:21:49.289Z,9.37
2019-06-26T17:24:19.108Z,10.63
2019-06-26T17:26:49.195Z,5.93
2019-06-26T17:29:19.025Z,7.00
2019-06-26T17:31:48.974Z,4.17
2019-06-26T17:34:18.938Z,5.77
2019-06-26T17:36:48.761Z,10.97
2019-06-26T17:39:18.496Z,11.60
2019-06-26T17:41:48.420Z,6.90
2019-06-26T17:44:18.240Z,8.37
2019-06-26T17:46:48.061Z,8.87
2019-06-26T17:49:17.967Z,9.00
2019-06-26T17:51:47.801Z,6.53
2019-06-26T17:54:17.623Z,19.23
2019-06-26T17:56:47.371Z,9.83
2019-06-26T17:59:17.235Z,9.33
2019-06-26T18:01:47.184Z,11.73
2019-06-26T18:04:17.089Z,12.27
2019-06-26T18:06:48.050Z,11.37
2019-06-26T18:09:18.112Z,8.77
2019-06-26T18:11:48.068Z,11.83
2019-06-26T18:14:17.861Z,10.20
2019-06-26T18:16:47.615Z,12.17
2019-06-26T18:19:17.361Z,12.50
2019-06-26T18:21:47.302Z,11.43
2019-06-26T18:24:17.033Z,13.03
2019-06-26T18:26:46.913Z,15.73
2019-06-26T18:29:16.744Z,8.77
2019-06-26T18:31:46.559Z,10.20
2019-06-26T18:34:16.294Z,14.67
2019-06-26T18:36:46.453Z,13.27
2019-06-26T18:39:18.710Z,12.90
2019-06-26T18:41:48.786Z,13.33
2019-06-26T18:44:21.685Z,9.13
2019-06-26T18:46:51.385Z,12.77
2019-06-26T18:49:21.085Z,12.50
2019-06-26T18:51:50.850Z,9.20
2019-06-26T18:54:20.573Z,12.63
2019-06-26T18:56:50.270Z,8.90
2019-06-26T18:59:19.943Z,11.47
2019-06-26T19:01:49.662Z,8.60
2019-06-26T19:04:19.623Z,9.77
2019-06-26T19:06:52.171Z,5.60
2019-06-26T19:09:22.362Z,6.97
2019-06-26T19:11:55.151Z,8.27
2019-06-26T19:14:25.230Z,12.47
2019-06-26T19:16:55.265Z,10.50
2019-06-26T19:19:25.129Z,8.57
2019-06-26T19:21:54.945Z,10.85
2019-06-26T19:24:25.112Z,10.08
2019-06-26T19:26:57.649Z,6.50
2019-06-26T19:29:27.739Z,8.30
2019-06-26T19:31:58.017Z,11.03
2019-06-26T19:34:27.763Z,7.50
2019-06-26T19:36:57.486Z,10.63
2019-06-26T19:39:27.209Z,8.60
2019-06-26T19:41:56.882Z,8.83
2019-06-26T19:44:26.837Z,10.10
2019-06-26T19:46:56.808Z,6.63
2019-06-26T19:49:26.818Z,10.60
2019-06-26T19:51:56.544Z,11.73
2019-06-26T19:54:29.612Z,6.27
2019-06-26T19:56:57.914Z,11.20
2019-06-26T19:59:27.925Z,8.43
2019-06-26T20:01:57.849Z,11.20
2019-06-26T20:04:27.555Z,11.57
2019-06-26T20:06:57.315Z,16.37
2019-06-26T20:09:27.177Z,14.30
2019-06-26T20:11:56.991Z,11.17
2019-06-26T20:14:27.032Z,13.77
2019-06-26T20:16:56.767Z,14.57
2019-06-26T20:19:26.630Z,13.07
2019-06-26T20:21:56.376Z,8.67
2019-06-26T20:24:42.551Z,8.30
2019-06-26T20:26:58.198Z,12.47
2019-06-26T20:29:28.110Z,8.40
2019-06-26T20:31:57.870Z,11.63
2019-06-26T20:34:28.132Z,9.20
2019-06-26T20:36:57.941Z,11.57
2019-06-26T20:39:27.705Z,10.27
2019-06-26T20:41:57.518Z,8.83
2019-06-26T20:44:30.538Z,16.70
2019-06-26T20:46:59.038Z,9.90
2019-06-26T20:49:28.921Z,8.73
2019-06-26T20:51:58.738Z,15.37
2019-06-26T20:54:28.549Z,9.33
2019-06-26T20:56:58.417Z,13.10
2019-06-26T20:59:28.264Z,11.87
2019-06-26T21:01:58.044Z,9.47
2019-06-26T21:04:28.027Z,15.57
2019-06-26T21:06:57.853Z,12.33
2019-06-26T21:09:27.630Z,12.63
2019-06-26T21:11:57.451Z,13.50
2019-06-26T21:14:27.375Z,11.47
2019-06-26T21:16:57.285Z,11.67
2019-06-26T21:19:27.099Z,12.00
2019-06-26T21:21:56.849Z,13.37
2019-06-26T21:24:27.082Z,11.67
2019-06-26T21:26:57.866Z,7.10
2019-06-26T21:29:27.631Z,10.17
2019-06-26T21:31:57.418Z,9.73
2019-06-26T21:34:27.285Z,11.00
2019-06-26T21:36:57.148Z,15.03
2019-06-26T21:39:27.051Z,16.30
2019-06-26T21:41:56.868Z,8.90
2019-06-26T21:44:26.632Z,15.23
2019-06-26T21:46:56.397Z,9.80
2019-06-26T21:49:26.217Z,8.43
2019-06-26T21:51:56.120Z,12.20
2019-06-26T21:54:25.880Z,12.70
2019-06-26T21:56:55.694Z,10.83
2019-06-26T21:59:25.455Z,14.13
2019-06-26T22:01:55.417Z,10.23
2019-06-26T22:04:25.275Z,16.73
2019-06-26T22:06:55.179Z,10.83
2019-06-26T22:09:26.090Z,19.27
2019-06-26T22:11:55.990Z,10.23
2019-06-26T22:14:25.861Z,16.57
2019-06-26T22:16:55.766Z,19.13
2019-06-26T22:19:25.690Z,12.43
2019-06-26T22:21:55.487Z,14.17
2019-06-26T22:24:25.318Z,17.57
2019-06-26T22:26:55.202Z,12.83
2019-06-26T22:29:25.030Z,10.30
2019-06-26T22:31:54.856Z,15.23
2019-06-26T22:34:24.977Z,11.67
2019-06-26T22:36:56.441Z,12.77
2019-06-26T22:39:26.188Z,14.93
2019-06-26T22:41:55.908Z,16.40
2019-06-26T22:44:25.681Z,13.60
2019-06-26T22:46:55.462Z,12.23
2019-06-26T22:49:25.222Z,13.97
2019-06-26T22:51:54.995Z,17.87
2019-06-26T22:54:24.760Z,16.37
2019-06-26T22:56:54.588Z,16.27
2019-06-26T22:59:24.335Z,14.93
2019-06-26T23:01:54.197Z,13.17
2019-06-26T23:04:24.047Z,13.23
2019-06-26T23:06:53.833Z,17.67
2019-06-26T23:09:23.605Z,14.87
2019-06-26T23:11:53.437Z,13.17
2019-06-26T23:14:23.183Z,11.93
2019-06-26T23:16:52.937Z,12.23
2019-06-26T23:19:22.689Z,19.57
2019-06-26T23:21:52.462Z,20.43
2019-06-26T23:24:22.206Z,17.43
2019-06-26T23:26:52.017Z,15.23
2019-06-26T23:29:21.770Z,20.30
2019-06-26T23:31:51.548Z,17.27
2019-06-26T23:34:21.361Z,17.70
2019-06-26T23:36:51.224Z,15.37
2019-06-26T23:39:20.988Z,13.73
2019-06-26T23:41:50.861Z,13.53
2019-06-26T23:44:20.620Z,16.00
2019-06-26T23:46:50.405Z,14.87
2019-06-26T23:49:20.221Z,14.13
2019-06-26T23:54:43.765Z,12.00
2019-06-26T23:57:13.509Z,17.23
2019-06-26T23:59:43.358Z,21.83
